Main page
METAR-TAF:

METAR-TAF

Airports :

Dübendorf Air Base

Dübendorf, Switzerland

latitude: 47-23-55N, longitude: 8-38-53E, elevation: 448 m

Current weather observation

The report was made 16 minutes ago, at 02:50 UTC
Wind 1 kt from variable directions
Temperature 15°C
Humidity 88%
Pressure 1013 hPa
Visibility 10 km or more

METAR: LSMD 250250Z AUTO VRB01KT 9999NDV NCD 15/13 Q1013 RMK

Time: 05:06 (03:06 UTC)


TAF: missing

Weather observations and forecasts of more than 4000 airports (METAR and TAF reports).

The available stations are represented by yellow and red dots on the map.

Hover mouse over dot to see the name of the station.

Then click to see weather observations and forecasts.

To change the map : click on the green buttons with a black cross to zoom in, on the green button with a dash to zoom out, or on the green arrows for adjacent maps.


METAR-TAF: